Golar Kelvin — V7DE2 — position and weather

sailwx.info

Track history (hours):
 
Tides and Currents Weather Stations Pressure Air Temp Water Temp Dewpoint Dewpoint Depression Visibility Wind Speed Wind Dir Waves Ship Positions

Golar Kelvin

Last reported at 2017-Oct-28 10:55 UTC. Time now 2017-Nov-20 12:08 UTC.
Position N 27°35' W 015°14'.
Warning: this ship's position is 23 days out of date.

Length 289 m; draft 10.6 m.

Type: Ship (hazmat cat D). MMSI: 538005374.

Date/timePositionNaut miles runAvg speedWind from/ knotsBaromVisibWave heightAir tempDewpointWater temp
2017-Oct-28 10:55N 27°35' W 015°14'819.5
2017-Oct-28 10:30N 27°43' W 015°12'1020.0
2017-Oct-28 10:00N 27°53' W 015°12'918.8
2017-Oct-28 09:30N 28°02' W 015°15'714.5
2017-Oct-28 09:00N 28°08' W 015°19'3 5.6
2017-Oct-28 08:30N 28°11' W 015°17'5 9.6
2017-Oct-28 08:01N 28°14' W 015°14'816.7
2017-Oct-28 07:31N 28°20' W 015°07'817.0
2017-Oct-28 07:01N 28°26' W 014°60'917.0
2017-Oct-28 06:30N 28°32' W 014°53'917.7
2017-Oct-28 06:01N 28°41' W 014°50'1019.5
2017-Oct-28 05:31N 28°50' W 014°48'1019.7
2017-Oct-28 05:01N 28°60' W 014°45'1020.0
2017-Oct-28 04:31N 29°09' W 014°43'1020.0
2017-Oct-28 04:00N 29°19' W 014°40'1020.2
2017-Oct-28 03:30N 29°29' W 014°37'1020.2
2017-Oct-28 03:00N 29°39' W 014°34'1020.2
2017-Oct-28 02:30N 29°48' W 014°31'1020.4
2017-Oct-28 02:00N 29°58' W 014°28'1020.3
2017-Oct-28 01:30N 30°08' W 014°25'1020.3
2017-Oct-28 01:00N 30°18' W 014°22'1020.1
2017-Oct-28 00:30N 30°28' W 014°20'1020.1
2017-Oct-28 00:00N 30°37' W 014°17'1019.8
2017-Oct-27 23:30N 30°47' W 014°14'1019.6
2017-Oct-27 23:00N 30°56' W 014°11'1019.4
2017-Oct-27 22:30N 31°06' W 014°08'5819.5
2017-Oct-27 19:32N 32°02' W 013°52'019.9
2017-Oct-27 19:30N 32°03' W 013°52'1019.7
2017-Oct-27 19:01N 32°12' W 013°48'1019.5
2017-Oct-27 18:30N 32°22' W 013°45'1019.3
2017-Oct-27 18:00N 32°31' W 013°42'919.0
2017-Oct-27 17:30N 32°40' W 013°39'1619.1
2017-Oct-27 16:41N 32°55' W 013°35'619.3
2017-Oct-27 16:24N 33°01' W 013°33'719.3
2017-Oct-27 16:01N 33°08' W 013°31'33119.2
2017-Oct-26 22:44N 38°29' W 011°50'419.2
2017-Oct-26 22:30N 38°33' W 011°49'919.1
2017-Oct-26 22:01N 38°42' W 011°46'1019.0
2017-Oct-26 21:31N 38°51' W 011°43'1619.3
2017-Oct-26 20:42N 39°06' W 011°38'2619.1
2017-Oct-26 19:21N 39°31' W 011°29'819.0
2017-Oct-26 18:55N 39°39' W 011°27'1119.0
2017-Oct-26 18:21N 39°50' W 011°23'618.8
2017-Oct-26 18:00N 39°56' W 011°21'918.9
2017-Oct-26 17:30N 40°05' W 011°18'918.8
2017-Oct-26 17:00N 40°14' W 011°15'918.6
2017-Oct-26 16:30N 40°23' W 011°12'27917.6
2017-Oct-26 00:39N 44°32' W 008°19'318.6
2017-Oct-26 00:29N 44°34' W 008°16'918.6
2017-Oct-26 00:00N 44°40' W 008°06'918.3
2017-Oct-25 23:31N 44°45' W 007°56'918.1
2017-Oct-25 23:01N 44°51' W 007°46'918.1
2017-Oct-25 22:31N 44°55' W 007°35'918.1
2017-Oct-25 22:01N 45°00' W 007°24'917.8
2017-Oct-25 21:31N 45°05' W 007°14'917.8
2017-Oct-25 21:01N 45°10' W 007°03'1017.8
2017-Oct-25 20:25N 45°15' W 006°50'717.6
2017-Oct-25 20:01N 45°19' W 006°41'917.8
2017-Oct-25 19:31N 45°23' W 006°30'918.2
2017-Oct-25 19:00N 45°28' W 006°19'1017.9
2017-Oct-25 18:26N 45°33' W 006°07'817.8
2017-Oct-25 18:00N 45°37' W 005°57'917.9
2017-Oct-25 17:30N 45°42' W 005°47'917.9
2017-Oct-25 17:00N 45°47' W 005°36'917.4
2017-Oct-25 16:31N 45°52' W 005°25'917.5
2017-Oct-25 16:01N 45°56' W 005°15'917.4
2017-Oct-25 15:31N 46°01' W 005°04'917.7
2017-Oct-25 15:01N 46°05' W 004°53'918.1
2017-Oct-25 14:31N 46°10' W 004°41'918.3
2017-Oct-25 14:01N 46°14' W 004°30'918.0
2017-Oct-25 13:31N 46°19' W 004°19'917.8
2017-Oct-25 13:00N 46°23' W 004°08'917.9
2017-Oct-25 12:31N 46°28' W 003°56'917.9
2017-Oct-25 12:01N 46°32' W 003°45'918.6
2017-Oct-25 11:31N 46°37' W 003°34'918.4
2017-Oct-25 11:01N 46°42' W 003°22'1019.2
2017-Oct-25 10:30N 46°47' W 003°10'917.4
2017-Oct-25 10:01N 46°51' W 002°59'918.3
2017-Oct-25 09:31N 46°56' W 002°48'918.2
2017-Oct-25 09:01N 47°01' W 002°36'917.3
2017-Oct-25 08:31N 47°05' W 002°25'611.1
2017-Oct-25 08:00N 47°09' W 002°20'510.7
2017-Oct-25 07:30N 47°14' W 002°16'5 9.9
2017-Oct-25 07:00N 47°17' W 002°10'2 3.8
2017-Oct-25 06:30N 47°18' W 002°08'0 0.0
2017-Oct-25 05:48N 47°18' W 002°08'0 0.0
2017-Oct-25 05:27N 47°18' W 002°08'0 0.0
2017-Oct-25 05:00N 47°18' W 002°08'0 0.0
2017-Oct-25 04:30N 47°18' W 002°08'0 0.0
2017-Oct-25 04:00N 47°18' W 002°08'0 0.0
2017-Oct-25 03:24N 47°18' W 002°08'0 0.0
2017-Oct-25 02:48N 47°18' W 002°08'0 0.0
2017-Oct-25 02:30N 47°18' W 002°08'0 0.0
2017-Oct-25 02:00N 47°18' W 002°08'0 0.0
2017-Oct-25 01:27N 47°18' W 002°08'0 0.0
2017-Oct-25 01:00N 47°18' W 002°08'0 0.0
2017-Oct-25 00:30N 47°18' W 002°08'0 0.0
2017-Oct-25 00:00N 47°18' W 002°08'0 0.0
2017-Oct-24 23:30N 47°18' W 002°08'0 0.0
2017-Oct-24 22:54N 47°18' W 002°08'0 0.0
2017-Oct-24 22:30N 47°18' W 002°08'0 0.0
2017-Oct-24 22:00N 47°18' W 002°08'0 0.0
2017-Oct-24 21:30N 47°18' W 002°08'0 0.0
2017-Oct-24 21:00N 47°18' W 002°08'0 0.0
2017-Oct-24 20:24N 47°18' W 002°08'0 0.0
2017-Oct-24 20:00N 47°18' W 002°08'0 0.0
2017-Oct-24 19:30N 47°18' W 002°08'0 0.0
2017-Oct-24 19:00N 47°18' W 002°08'0 0.0
2017-Oct-24 18:27N 47°18' W 002°08'0 0.0
2017-Oct-24 18:00N 47°18' W 002°08'0 0.0
2017-Oct-24 17:30N 47°18' W 002°08'0 0.0
2017-Oct-24 17:00N 47°18' W 002°08'0 0.0
2017-Oct-24 16:30N 47°18' W 002°08'0 0.0
2017-Oct-24 16:00N 47°18' W 002°08'0 0.0
2017-Oct-24 15:24N 47°18' W 002°08'0 0.0
2017-Oct-24 15:00N 47°18' W 002°08'0 0.0
2017-Oct-24 14:24N 47°18' W 002°08'0 0.0
2017-Oct-24 13:57N 47°18' W 002°08'0 0.0
2017-Oct-24 13:27N 47°18' W 002°08'0 0.0
2017-Oct-24 13:00N 47°18' W 002°08'0 0.0
2017-Oct-24 12:27N 47°18' W 002°08'0 0.0
2017-Oct-24 11:57N 47°18' W 002°08'0 0.0
2017-Oct-24 11:30N 47°18' W 002°08'0 0.0
2017-Oct-24 10:57N 47°18' W 002°08'0 0.0
2017-Oct-24 10:27N 47°18' W 002°08'0 0.0
2017-Oct-24 10:00N 47°18' W 002°08'0 0.0
2017-Oct-24 09:27N 47°18' W 002°08'0 0.0
2017-Oct-24 08:57N 47°18' W 002°08'0 0.0
2017-Oct-24 08:30N 47°18' W 002°08'0 0.0
2017-Oct-24 08:00N 47°18' W 002°08'0 0.0
2017-Oct-24 07:24N 47°18' W 002°08'0 0.0
2017-Oct-24 06:57N 47°18' W 002°08'0 0.0
2017-Oct-24 06:30N 47°18' W 002°08'0 0.0
2017-Oct-24 06:00N 47°18' W 002°08'0 0.0
2017-Oct-24 05:24N 47°18' W 002°08'0 0.1
2017-Oct-24 05:01N 47°18' W 002°08'1 2.9
2017-Oct-24 04:30N 47°17' W 002°10'510.3
2017-Oct-24 04:00N 47°14' W 002°16'612.8
2017-Oct-24 03:31N 47°08' W 002°20'3 6.9
2017-Oct-24 03:00N 47°06' W 002°24'4 7.4
2017-Oct-24 02:30N 47°04' W 002°28'4 8.7
2017-Oct-24 02:00N 47°01' W 002°34'3 5.9
2017-Oct-24 01:30N 47°00' W 002°38'3 5.3
2017-Oct-24 01:00N 46°59' W 002°41'2 3.3
2017-Oct-24 00:22N 46°58' W 002°44'1 3.0
2017-Oct-23 23:57N 46°57' W 002°42'1 2.9
2017-Oct-23 23:26N 46°56' W 002°41'1 1.2
2017-Oct-23 22:33N 46°56' W 002°40'0 4.5
2017-Oct-23 22:30N 46°56' W 002°40'2 4.2
2017-Oct-23 21:58N 46°58' W 002°42'54914.8
2017-Oct-22 08:54N 39°30' W 009°57'614.2
2017-Oct-22 08:31N 39°24' W 009°57'714.4
2017-Oct-22 08:00N 39°17' W 009°57'713.7
2017-Oct-22 07:30N 39°10' W 009°56'714.1
2017-Oct-22 07:00N 39°03' W 009°56'714.1
2017-Oct-22 06:30N 38°56' W 009°56'713.7
2017-Oct-22 06:00N 38°49' W 009°56'713.9
2017-Oct-22 05:30N 38°42' W 009°56'713.9
2017-Oct-22 05:00N 38°35' W 009°55'713.6
2017-Oct-22 04:30N 38°28' W 009°53'713.7
2017-Oct-22 04:00N 38°22' W 009°51'714.1
2017-Oct-22 03:30N 38°15' W 009°48'714.7
2017-Oct-22 03:00N 38°08' W 009°46'815.1
2017-Oct-22 02:30N 38°00' W 009°44'1014.9
2017-Oct-22 01:48N 37°50' W 009°41'414.9
2017-Oct-22 01:30N 37°46' W 009°40'7413.3
2017-Oct-21 19:58N 36°38' W 009°03'814.3
2017-Oct-21 19:25N 36°37' W 008°53'814.2
2017-Oct-21 18:53N 36°35' W 008°44'714.9
2017-Oct-21 18:25N 36°34' W 008°36'815.6
2017-Oct-21 17:55N 36°33' W 008°26'1016.3
2017-Oct-21 17:19N 36°30' W 008°14'13817.5
2017-Oct-21 09:27N 35°60' W 005°27'715.2
2017-Oct-21 09:00N 36°01' W 005°19'69916.2
2017-Oct-19 13:51N 37°50' E 009°04'616.3
2017-Oct-19 13:29N 37°49' E 009°12'916.4
2017-Oct-19 12:56N 37°48' E 009°23'716.6
2017-Oct-19 12:29N 37°47' E 009°32'1016.4
2017-Oct-19 11:54N 37°45' E 009°44'716.5
2017-Oct-19 11:29N 37°44' E 009°53'1016.3
2017-Oct-19 10:54N 37°43' E 010°05'19416.6
2017-Oct-18 23:15N 36°29' E 013°49'416.7
2017-Oct-18 23:00N 36°28' E 013°54'816.5
2017-Oct-18 22:30N 36°25' E 014°04'816.5
2017-Oct-18 22:01N 36°22' E 014°13'816.4
2017-Oct-18 21:30N 36°19' E 014°23'816.4
2017-Oct-18 21:00N 36°16' E 014°32'816.5
2017-Oct-18 20:30N 36°13' E 014°42'816.4
2017-Oct-18 20:00N 36°11' E 014°52'916.4
2017-Oct-18 19:27N 36°07' E 015°02'  
Track history (hours):
 
Tides and Currents Weather Stations Pressure Air Temp Water Temp Dewpoint Dewpoint Depression Visibility Wind Speed Wind Dir Waves Ship Positions

Golar Kelvin

Last reported at 2017-Oct-28 10:55 UTC. Time now 2017-Nov-20 12:08 UTC.
Position N 27°35' W 015°14'.
Warning: this ship's position is 23 days out of date.

Length 289 m; draft 10.6 m.

Type: Ship (hazmat cat D). MMSI: 538005374.

Date/timePositionNaut miles runAvg speedWind from/ knotsBaromVisibWave heightAir tempDewpointWater temp
2017-Oct-28 10:55N 27°35' W 015°14'819.5
2017-Oct-28 10:30N 27°43' W 015°12'1020.0
2017-Oct-28 10:00N 27°53' W 015°12'918.8
2017-Oct-28 09:30N 28°02' W 015°15'714.5
2017-Oct-28 09:00N 28°08' W 015°19'3 5.6
2017-Oct-28 08:30N 28°11' W 015°17'5 9.6
2017-Oct-28 08:01N 28°14' W 015°14'816.7
2017-Oct-28 07:31N 28°20' W 015°07'817.0
2017-Oct-28 07:01N 28°26' W 014°60'917.0
2017-Oct-28 06:30N 28°32' W 014°53'917.7
2017-Oct-28 06:01N 28°41' W 014°50'1019.5
2017-Oct-28 05:31N 28°50' W 014°48'1019.7
2017-Oct-28 05:01N 28°60' W 014°45'1020.0
2017-Oct-28 04:31N 29°09' W 014°43'1020.0
2017-Oct-28 04:00N 29°19' W 014°40'1020.2
2017-Oct-28 03:30N 29°29' W 014°37'1020.2
2017-Oct-28 03:00N 29°39' W 014°34'1020.2
2017-Oct-28 02:30N 29°48' W 014°31'1020.4
2017-Oct-28 02:00N 29°58' W 014°28'1020.3
2017-Oct-28 01:30N 30°08' W 014°25'1020.3
2017-Oct-28 01:00N 30°18' W 014°22'1020.1
2017-Oct-28 00:30N 30°28' W 014°20'1020.1
2017-Oct-28 00:00N 30°37' W 014°17'1019.8
2017-Oct-27 23:30N 30°47' W 014°14'1019.6
2017-Oct-27 23:00N 30°56' W 014°11'1019.4
2017-Oct-27 22:30N 31°06' W 014°08'5819.5
2017-Oct-27 19:32N 32°02' W 013°52'019.9
2017-Oct-27 19:30N 32°03' W 013°52'1019.7
2017-Oct-27 19:01N 32°12' W 013°48'1019.5
2017-Oct-27 18:30N 32°22' W 013°45'1019.3
2017-Oct-27 18:00N 32°31' W 013°42'919.0
2017-Oct-27 17:30N 32°40' W 013°39'1619.1
2017-Oct-27 16:41N 32°55' W 013°35'619.3
2017-Oct-27 16:24N 33°01' W 013°33'719.3
2017-Oct-27 16:01N 33°08' W 013°31'33119.2
2017-Oct-26 22:44N 38°29' W 011°50'419.2
2017-Oct-26 22:30N 38°33' W 011°49'919.1
2017-Oct-26 22:01N 38°42' W 011°46'1019.0
2017-Oct-26 21:31N 38°51' W 011°43'1619.3
2017-Oct-26 20:42N 39°06' W 011°38'2619.1
2017-Oct-26 19:21N 39°31' W 011°29'819.0
2017-Oct-26 18:55N 39°39' W 011°27'1119.0
2017-Oct-26 18:21N 39°50' W 011°23'618.8
2017-Oct-26 18:00N 39°56' W 011°21'918.9
2017-Oct-26 17:30N 40°05' W 011°18'918.8
2017-Oct-26 17:00N 40°14' W 011°15'918.6
2017-Oct-26 16:30N 40°23' W 011°12'27917.6
2017-Oct-26 00:39N 44°32' W 008°19'318.6
2017-Oct-26 00:29N 44°34' W 008°16'918.6
2017-Oct-26 00:00N 44°40' W 008°06'918.3
2017-Oct-25 23:31N 44°45' W 007°56'918.1
2017-Oct-25 23:01N 44°51' W 007°46'918.1
2017-Oct-25 22:31N 44°55' W 007°35'918.1
2017-Oct-25 22:01N 45°00' W 007°24'917.8
2017-Oct-25 21:31N 45°05' W 007°14'917.8
2017-Oct-25 21:01N 45°10' W 007°03'1017.8
2017-Oct-25 20:25N 45°15' W 006°50'717.6
2017-Oct-25 20:01N 45°19' W 006°41'917.8
2017-Oct-25 19:31N 45°23' W 006°30'918.2
2017-Oct-25 19:00N 45°28' W 006°19'1017.9
2017-Oct-25 18:26N 45°33' W 006°07'817.8
2017-Oct-25 18:00N 45°37' W 005°57'917.9
2017-Oct-25 17:30N 45°42' W 005°47'917.9
2017-Oct-25 17:00N 45°47' W 005°36'917.4
2017-Oct-25 16:31N 45°52' W 005°25'917.5
2017-Oct-25 16:01N 45°56' W 005°15'917.4
2017-Oct-25 15:31N 46°01' W 005°04'917.7
2017-Oct-25 15:01N 46°05' W 004°53'918.1
2017-Oct-25 14:31N 46°10' W 004°41'918.3
2017-Oct-25 14:01N 46°14' W 004°30'918.0
2017-Oct-25 13:31N 46°19' W 004°19'917.8
2017-Oct-25 13:00N 46°23' W 004°08'917.9
2017-Oct-25 12:31N 46°28' W 003°56'917.9
2017-Oct-25 12:01N 46°32' W 003°45'918.6
2017-Oct-25 11:31N 46°37' W 003°34'918.4
2017-Oct-25 11:01N 46°42' W 003°22'1019.2
2017-Oct-25 10:30N 46°47' W 003°10'917.4
2017-Oct-25 10:01N 46°51' W 002°59'918.3
2017-Oct-25 09:31N 46°56' W 002°48'918.2
2017-Oct-25 09:01N 47°01' W 002°36'917.3
2017-Oct-25 08:31N 47°05' W 002°25'611.1
2017-Oct-25 08:00N 47°09' W 002°20'510.7
2017-Oct-25 07:30N 47°14' W 002°16'5 9.9
2017-Oct-25 07:00N 47°17' W 002°10'2 3.8
2017-Oct-25 06:30N 47°18' W 002°08'0 0.0
2017-Oct-25 05:48N 47°18' W 002°08'0 0.0
2017-Oct-25 05:27N 47°18' W 002°08'0 0.0
2017-Oct-25 05:00N 47°18' W 002°08'0 0.0
2017-Oct-25 04:30N 47°18' W 002°08'0 0.0
2017-Oct-25 04:00N 47°18' W 002°08'0 0.0
2017-Oct-25 03:24N 47°18' W 002°08'0 0.0
2017-Oct-25 02:48N 47°18' W 002°08'0 0.0
2017-Oct-25 02:30N 47°18' W 002°08'0 0.0
2017-Oct-25 02:00N 47°18' W 002°08'0 0.0
2017-Oct-25 01:27N 47°18' W 002°08'0 0.0
2017-Oct-25 01:00N 47°18' W 002°08'0 0.0
2017-Oct-25 00:30N 47°18' W 002°08'0 0.0
2017-Oct-25 00:00N 47°18' W 002°08'0 0.0
2017-Oct-24 23:30N 47°18' W 002°08'0 0.0
2017-Oct-24 22:54N 47°18' W 002°08'0 0.0
2017-Oct-24 22:30N 47°18' W 002°08'0 0.0
2017-Oct-24 22:00N 47°18' W 002°08'0 0.0
2017-Oct-24 21:30N 47°18' W 002°08'0 0.0
2017-Oct-24 21:00N 47°18' W 002°08'0 0.0
2017-Oct-24 20:24N 47°18' W 002°08'0 0.0
2017-Oct-24 20:00N 47°18' W 002°08'0 0.0
2017-Oct-24 19:30N 47°18' W 002°08'0 0.0
2017-Oct-24 19:00N 47°18' W 002°08'0 0.0
2017-Oct-24 18:27N 47°18' W 002°08'0 0.0
2017-Oct-24 18:00N 47°18' W 002°08'0 0.0
2017-Oct-24 17:30N 47°18' W 002°08'0 0.0
2017-Oct-24 17:00N 47°18' W 002°08'0 0.0
2017-Oct-24 16:30N 47°18' W 002°08'0 0.0
2017-Oct-24 16:00N 47°18' W 002°08'0 0.0
2017-Oct-24 15:24N 47°18' W 002°08'0 0.0
2017-Oct-24 15:00N 47°18' W 002°08'0 0.0
2017-Oct-24 14:24N 47°18' W 002°08'0 0.0
2017-Oct-24 13:57N 47°18' W 002°08'0 0.0
2017-Oct-24 13:27N 47°18' W 002°08'0 0.0
2017-Oct-24 13:00N 47°18' W 002°08'0 0.0
2017-Oct-24 12:27N 47°18' W 002°08'0 0.0
2017-Oct-24 11:57N 47°18' W 002°08'0 0.0
2017-Oct-24 11:30N 47°18' W 002°08'0 0.0
2017-Oct-24 10:57N 47°18' W 002°08'0 0.0
2017-Oct-24 10:27N 47°18' W 002°08'0 0.0
2017-Oct-24 10:00N 47°18' W 002°08'0 0.0
2017-Oct-24 09:27N 47°18' W 002°08'0 0.0
2017-Oct-24 08:57N 47°18' W 002°08'0 0.0
2017-Oct-24 08:30N 47°18' W 002°08'0 0.0
2017-Oct-24 08:00N 47°18' W 002°08'0 0.0
2017-Oct-24 07:24N 47°18' W 002°08'0 0.0
2017-Oct-24 06:57N 47°18' W 002°08'0 0.0
2017-Oct-24 06:30N 47°18' W 002°08'0 0.0
2017-Oct-24 06:00N 47°18' W 002°08'0 0.0
2017-Oct-24 05:24N 47°18' W 002°08'0 0.1
2017-Oct-24 05:01N 47°18' W 002°08'1 2.9
2017-Oct-24 04:30N 47°17' W 002°10'510.3
2017-Oct-24 04:00N 47°14' W 002°16'612.8
2017-Oct-24 03:31N 47°08' W 002°20'3 6.9
2017-Oct-24 03:00N 47°06' W 002°24'4 7.4
2017-Oct-24 02:30N 47°04' W 002°28'4 8.7
2017-Oct-24 02:00N 47°01' W 002°34'3 5.9
2017-Oct-24 01:30N 47°00' W 002°38'3 5.3
2017-Oct-24 01:00N 46°59' W 002°41'2 3.3
2017-Oct-24 00:22N 46°58' W 002°44'1 3.0
2017-Oct-23 23:57N 46°57' W 002°42'1 2.9
2017-Oct-23 23:26N 46°56' W 002°41'1 1.2
2017-Oct-23 22:33N 46°56' W 002°40'0 4.5
2017-Oct-23 22:30N 46°56' W 002°40'2 4.2
2017-Oct-23 21:58N 46°58' W 002°42'54914.8
2017-Oct-22 08:54N 39°30' W 009°57'614.2
2017-Oct-22 08:31N 39°24' W 009°57'714.4
2017-Oct-22 08:00N 39°17' W 009°57'713.7
2017-Oct-22 07:30N 39°10' W 009°56'714.1
2017-Oct-22 07:00N 39°03' W 009°56'714.1
2017-Oct-22 06:30N 38°56' W 009°56'713.7
2017-Oct-22 06:00N 38°49' W 009°56'713.9
2017-Oct-22 05:30N 38°42' W 009°56'713.9
2017-Oct-22 05:00N 38°35' W 009°55'713.6
2017-Oct-22 04:30N 38°28' W 009°53'713.7
2017-Oct-22 04:00N 38°22' W 009°51'714.1
2017-Oct-22 03:30N 38°15' W 009°48'714.7
2017-Oct-22 03:00N 38°08' W 009°46'815.1
2017-Oct-22 02:30N 38°00' W 009°44'1014.9
2017-Oct-22 01:48N 37°50' W 009°41'414.9
2017-Oct-22 01:30N 37°46' W 009°40'7413.3
2017-Oct-21 19:58N 36°38' W 009°03'814.3
2017-Oct-21 19:25N 36°37' W 008°53'814.2
2017-Oct-21 18:53N 36°35' W 008°44'714.9
2017-Oct-21 18:25N 36°34' W 008°36'815.6
2017-Oct-21 17:55N 36°33' W 008°26'1016.3
2017-Oct-21 17:19N 36°30' W 008°14'13817.5
2017-Oct-21 09:27N 35°60' W 005°27'715.2
2017-Oct-21 09:00N 36°01' W 005°19'69916.2
2017-Oct-19 13:51N 37°50' E 009°04'616.3
2017-Oct-19 13:29N 37°49' E 009°12'916.4
2017-Oct-19 12:56N 37°48' E 009°23'716.6
2017-Oct-19 12:29N 37°47' E 009°32'1016.4
2017-Oct-19 11:54N 37°45' E 009°44'716.5
2017-Oct-19 11:29N 37°44' E 009°53'1016.3
2017-Oct-19 10:54N 37°43' E 010°05'19416.6
2017-Oct-18 23:15N 36°29' E 013°49'416.7
2017-Oct-18 23:00N 36°28' E 013°54'816.5
2017-Oct-18 22:30N 36°25' E 014°04'816.5
2017-Oct-18 22:01N 36°22' E 014°13'816.4
2017-Oct-18 21:30N 36°19' E 014°23'816.4
2017-Oct-18 21:00N 36°16' E 014°32'816.5
2017-Oct-18 20:30N 36°13' E 014°42'816.4
2017-Oct-18 20:00N 36°11' E 014°52'916.4
2017-Oct-18 19:27N 36°07' E 015°02'  

Dump ship's entire track history